createdAt,value
2022-11-07T00:01:16.563Z,69.95
2022-11-07T00:03:44.233Z,69.74
2022-11-07T00:06:11.611Z,69.75
2022-11-07T00:08:38.949Z,69.67
2022-11-07T00:11:06.905Z,70.57
2022-11-07T00:13:34.329Z,70.61
2022-11-07T00:16:06.355Z,70.55
2022-11-07T00:18:34.180Z,70.97
2022-11-07T00:21:05.296Z,71.00
2022-11-07T00:23:32.819Z,70.24
2022-11-07T00:26:04.326Z,71.04
2022-11-07T00:28:35.638Z,70.72
2022-11-07T00:31:03.839Z,70.46
2022-11-07T00:33:31.625Z,70.73
2022-11-07T00:35:58.947Z,70.69
2022-11-07T00:38:26.628Z,70.85
2022-11-07T00:41:04.472Z,70.42
2022-11-07T00:43:32.169Z,70.11
2022-11-07T00:46:02.812Z,69.36
2022-11-07T00:48:30.925Z,69.61
2022-11-07T00:51:04.783Z,69.54
2022-11-07T00:53:32.149Z,71.00
2022-11-07T00:56:07.137Z,72.27
2022-11-07T00:58:34.704Z,72.33
2022-11-07T01:01:16.412Z,71.16
2022-11-07T01:04:02.584Z,71.37
2022-11-07T01:06:30.392Z,70.60
2022-11-07T01:08:57.744Z,70.44
2022-11-07T01:11:25.789Z,70.64
2022-11-07T01:14:00.447Z,70.39
2022-11-07T01:16:28.139Z,70.37
2022-11-07T01:18:55.747Z,69.89
2022-11-07T01:21:23.212Z,69.81
2022-11-07T01:23:50.562Z,69.58
2022-11-07T01:26:18.166Z,70.11
2022-11-07T01:28:45.525Z,70.06
2022-11-07T01:31:13.912Z,70.09
2022-11-07T01:33:41.675Z,69.94
2022-11-07T01:36:11.014Z,69.79
2022-11-07T01:38:42.143Z,70.08
2022-11-07T01:41:22.848Z,69.99
2022-11-07T01:44:08.171Z,69.76
2022-11-07T01:46:43.473Z,69.63
2022-11-07T01:49:19.241Z,70.30
2022-11-07T01:51:48.186Z,69.87
2022-11-07T01:54:17.159Z,69.33
2022-11-07T01:56:44.453Z,69.48
2022-11-07T01:59:14.324Z,69.50
2022-11-07T02:01:42.283Z,70.00
2022-11-07T02:04:10.002Z,70.89
2022-11-07T02:06:48.044Z,70.10
2022-11-07T02:09:15.759Z,69.91
2022-11-07T02:11:43.097Z,69.93
2022-11-07T02:14:15.689Z,70.16
2022-11-07T02:16:43.306Z,71.57
2022-11-07T02:19:22.875Z,70.32
2022-11-07T02:21:56.888Z,71.56
2022-11-07T02:24:28.135Z,71.19
2022-11-07T02:26:56.654Z,70.45
2022-11-07T02:29:24.155Z,70.47
2022-11-07T02:32:04.950Z,70.15
2022-11-07T02:34:32.576Z,70.38
2022-11-07T02:37:00.252Z,70.51
2022-11-07T02:39:27.621Z,70.09
2022-11-07T02:41:55.245Z,69.89
2022-11-07T02:44:22.619Z,70.48
2022-11-07T02:46:49.961Z,70.65
2022-11-07T02:49:18.597Z,70.43
2022-11-07T02:51:45.913Z,69.98
2022-11-07T02:54:13.244Z,69.75
2022-11-07T02:56:40.844Z,68.74
2022-11-07T02:59:08.160Z,69.17
2022-11-07T03:01:35.722Z,69.45
2022-11-07T03:04:03.474Z,70.41
2022-11-07T03:06:30.783Z,70.71
2022-11-07T03:08:58.103Z,70.75
2022-11-07T03:11:25.711Z,70.39
2022-11-07T03:13:55.008Z,70.37
2022-11-07T03:16:22.332Z,70.57
2022-11-07T03:18:49.915Z,69.90
2022-11-07T03:21:17.244Z,69.73
2022-11-07T03:23:44.653Z,70.55
2022-11-07T03:26:12.236Z,70.88
2022-11-07T03:28:39.589Z,70.30
2022-11-07T03:31:06.923Z,70.37
2022-11-07T03:33:34.505Z,70.23
2022-11-07T03:36:01.812Z,69.66
2022-11-07T03:38:29.136Z,70.16
2022-11-07T03:40:56.732Z,70.38
2022-11-07T03:43:24.066Z,70.45
2022-11-07T03:45:51.374Z,70.49
2022-11-07T03:48:18.988Z,70.65
2022-11-07T03:50:46.318Z,70.26
2022-11-07T03:53:14.023Z,70.53
2022-11-07T03:55:46.632Z,70.88
2022-11-07T03:58:13.973Z,70.12
2022-11-07T04:00:41.540Z,70.72
2022-11-07T04:03:09.264Z,70.43
2022-11-07T04:05:36.586Z,70.17
2022-11-07T04:08:04.497Z,70.18
2022-11-07T04:10:32.091Z,70.03
2022-11-07T04:13:18.078Z,70.17
2022-11-07T04:16:04.633Z,70.67
2022-11-07T04:18:31.786Z,70.24
2022-11-07T04:20:59.285Z,69.83
2022-11-07T04:23:26.637Z,69.97
2022-11-07T04:26:12.816Z,69.82
2022-11-07T04:28:40.402Z,70.46
2022-11-07T04:31:07.716Z,70.27
2022-11-07T04:33:35.117Z,70.33
2022-11-07T04:36:02.709Z,70.25
2022-11-07T04:38:30.068Z,70.02
2022-11-07T04:40:57.605Z,70.41
2022-11-07T04:43:25.899Z,69.91
2022-11-07T04:45:53.272Z,70.33
2022-11-07T04:48:20.575Z,70.04
2022-11-07T04:50:48.230Z,70.11
2022-11-07T04:53:17.088Z,70.24
2022-11-07T04:55:44.596Z,69.74
2022-11-07T04:58:12.176Z,70.36
2022-11-07T05:00:39.513Z,70.51
2022-11-07T05:03:06.929Z,70.62
2022-11-07T05:05:34.609Z,70.11
2022-11-07T05:08:01.907Z,69.92
2022-11-07T05:10:29.341Z,70.06
2022-11-07T05:12:56.931Z,70.46
2022-11-07T05:15:24.292Z,69.78
2022-11-07T05:17:51.770Z,69.74
2022-11-07T05:20:25.124Z,70.27
2022-11-07T05:23:11.300Z,70.37
2022-11-07T05:25:39.601Z,70.00
2022-11-07T05:28:07.013Z,69.98
2022-11-07T05:30:34.385Z,69.94
2022-11-07T05:33:01.958Z,70.27
2022-11-07T05:35:29.277Z,70.13
2022-11-07T05:37:56.609Z,69.48
2022-11-07T05:40:24.196Z,69.38
2022-11-07T05:42:51.543Z,69.13
2022-11-07T05:45:18.893Z,69.63
2022-11-07T05:47:46.487Z,70.20
2022-11-07T05:50:13.823Z,71.41
2022-11-07T05:52:41.153Z,73.03
2022-11-07T05:55:08.931Z,72.84
2022-11-07T05:57:36.352Z,71.54
2022-11-07T06:00:03.997Z,72.43
2022-11-07T06:02:39.672Z,72.24
2022-11-07T06:05:07.647Z,72.37
2022-11-07T06:07:35.475Z,71.83
2022-11-07T06:10:03.909Z,72.16
2022-11-07T06:12:31.499Z,74.91
2022-11-07T06:14:59.187Z,72.18
2022-11-07T06:17:26.551Z,74.74
2022-11-07T06:19:54.103Z,73.12
2022-11-07T06:22:21.462Z,75.54
2022-11-07T06:24:48.812Z,75.07
2022-11-07T06:27:17.038Z,74.82
2022-11-07T06:29:44.690Z,74.79
2022-11-07T06:32:12.013Z,74.02
2022-11-07T06:34:39.645Z,73.58
2022-11-07T06:37:07.474Z,74.34
2022-11-07T06:39:35.056Z,72.52
2022-11-07T06:42:02.963Z,73.74
2022-11-07T06:44:30.532Z,72.80
2022-11-07T06:46:57.918Z,72.09
2022-11-07T06:49:25.508Z,71.89
2022-11-07T06:51:52.856Z,70.89
2022-11-07T06:54:20.179Z,70.57
2022-11-07T06:56:47.806Z,70.89
2022-11-07T06:59:15.192Z,70.63
2022-11-07T07:01:42.702Z,70.06
2022-11-07T07:04:13.406Z,69.54
2022-11-07T07:06:40.766Z,70.19
2022-11-07T07:09:08.160Z,70.47
2022-11-07T07:11:37.143Z,69.53
2022-11-07T07:14:10.244Z,68.65
2022-11-07T07:16:39.158Z,67.28
2022-11-07T07:19:06.485Z,67.78
2022-11-07T07:21:34.779Z,66.70
2022-11-07T07:24:02.351Z,68.23
2022-11-07T07:26:29.827Z,67.61
2022-11-07T07:28:57.188Z,67.04
2022-11-07T07:31:26.457Z,66.86
2022-11-07T07:33:53.881Z,66.19
2022-11-07T07:36:21.407Z,66.65
2022-11-07T07:38:49.656Z,65.96
2022-11-07T07:41:17.580Z,66.94
2022-11-07T07:43:44.945Z,65.08
2022-11-07T07:46:16.724Z,65.14
2022-11-07T07:48:44.160Z,66.44
2022-11-07T07:51:11.488Z,65.61
2022-11-07T07:53:39.120Z,65.63
2022-11-07T07:56:07.421Z,65.60
2022-11-07T07:58:34.831Z,67.76
2022-11-07T08:01:03.512Z,67.61
2022-11-07T08:03:50.644Z,66.35
2022-11-07T08:06:18.519Z,67.41
2022-11-07T08:08:46.265Z,66.57
2022-11-07T08:11:15.611Z,66.18
2022-11-07T08:13:43.035Z,67.11
2022-11-07T08:16:10.652Z,66.79
2022-11-07T08:18:39.972Z,65.35
2022-11-07T08:21:07.541Z,65.86
2022-11-07T08:23:35.436Z,67.20
2022-11-07T08:26:04.546Z,68.05
2022-11-07T08:28:34.158Z,65.17
2022-11-07T08:31:11.965Z,65.03
2022-11-07T08:33:39.521Z,66.51
2022-11-07T08:36:07.567Z,65.32
2022-11-07T08:38:35.343Z,66.19
2022-11-07T08:41:04.839Z,65.11
2022-11-07T08:43:32.483Z,65.02
2022-11-07T08:45:59.874Z,65.38
2022-11-07T08:48:27.752Z,64.23
2022-11-07T08:50:56.626Z,64.56
2022-11-07T08:53:24.315Z,64.49
2022-11-07T08:55:51.853Z,63.53
2022-11-07T08:58:19.619Z,64.16
2022-11-07T09:00:49.403Z,63.52
2022-11-07T09:03:44.382Z,63.10
2022-11-07T09:06:04.945Z,62.12
2022-11-07T09:08:32.706Z,61.83
2022-11-07T09:11:03.939Z,62.36
2022-11-07T09:13:31.633Z,62.00
2022-11-07T09:15:59.613Z,63.21
2022-11-07T09:18:27.378Z,62.44
2022-11-07T09:20:55.164Z,62.26
2022-11-07T09:23:22.494Z,61.39
2022-11-07T09:25:49.857Z,63.70
2022-11-07T09:28:17.478Z,65.15
2022-11-07T09:30:44.795Z,63.12
2022-11-07T09:33:12.210Z,63.29
2022-11-07T09:35:39.963Z,62.94
2022-11-07T09:38:07.289Z,62.59
2022-11-07T09:40:45.496Z,62.00
2022-11-07T09:43:47.101Z,62.48
2022-11-07T09:46:33.242Z,64.41
2022-11-07T09:49:17.746Z,64.04
2022-11-07T09:51:47.967Z,65.03
2022-11-07T09:54:20.596Z,64.45
2022-11-07T09:56:47.920Z,63.18
2022-11-07T09:59:24.941Z,64.60
2022-11-07T10:01:52.522Z,64.97
2022-11-07T10:04:25.921Z,67.04
2022-11-07T10:07:06.191Z,64.90
2022-11-07T10:10:03.987Z,65.52
2022-11-07T10:12:43.272Z,66.66
2022-11-07T10:15:29.408Z,65.78
2022-11-07T10:18:05.916Z,66.72
2022-11-07T10:20:48.709Z,65.35
2022-11-07T10:23:40.533Z,69.00
2022-11-07T10:26:10.018Z,69.10
2022-11-07T10:28:45.420Z,68.57
2022-11-07T10:31:13.665Z,67.07
2022-11-07T10:33:53.335Z,67.03
2022-11-07T10:36:30.990Z,68.20
2022-11-07T10:38:58.400Z,68.32
2022-11-07T10:41:27.245Z,67.12
2022-11-07T10:44:00.769Z,67.10
2022-11-07T10:46:46.699Z,68.26
2022-11-07T10:49:16.077Z,68.15
2022-11-07T10:51:43.687Z,67.39
2022-11-07T10:54:22.334Z,68.27
2022-11-07T10:56:54.011Z,68.55
2022-11-07T10:59:30.109Z,68.43
2022-11-07T11:02:00.808Z,67.88
2022-11-07T11:04:29.955Z,68.71
2022-11-07T11:07:05.209Z,68.24
2022-11-07T11:09:34.371Z,68.96
2022-11-07T11:12:12.532Z,67.70
2022-11-07T11:14:40.367Z,68.09
2022-11-07T11:17:22.744Z,66.57
2022-11-07T11:19:52.764Z,67.65
2022-11-07T11:22:21.799Z,66.52
2022-11-07T11:25:17.627Z,66.37
2022-11-07T11:27:46.012Z,65.67
2022-11-07T11:30:17.891Z,66.15
2022-11-07T11:32:53.250Z,65.37
2022-11-07T11:35:34.462Z,65.04
2022-11-07T11:38:25.309Z,65.05
2022-11-07T11:41:03.401Z,66.61
2022-11-07T11:44:03.956Z,67.27
2022-11-07T11:46:38.332Z,65.27
2022-11-07T11:49:11.064Z,66.64
2022-11-07T11:51:54.255Z,70.84
2022-11-07T11:54:21.899Z,68.64
2022-11-07T11:57:01.123Z,69.26
2022-11-07T11:59:34.864Z,71.49
2022-11-07T12:02:39.277Z,70.34
2022-11-07T12:05:25.531Z,72.21
2022-11-07T12:08:12.882Z,70.01
2022-11-07T12:11:03.908Z,71.13
2022-11-07T12:13:53.162Z,70.12
2022-11-07T12:16:43.006Z,72.35
2022-11-07T12:19:14.788Z,69.26
2022-11-07T12:21:59.220Z,68.75
2022-11-07T12:24:50.873Z,65.95
2022-11-07T12:27:25.674Z,66.37
2022-11-07T12:30:05.937Z,65.36
2022-11-07T12:32:47.837Z,64.74
2022-11-07T12:35:24.334Z,65.42
2022-11-07T12:38:00.763Z,64.09
2022-11-07T12:40:47.233Z,65.18
2022-11-07T12:43:36.009Z,65.35
2022-11-07T12:46:24.977Z,66.16
2022-11-07T12:49:05.502Z,66.14
2022-11-07T12:51:45.085Z,65.96
2022-11-07T12:54:50.000Z,64.92
2022-11-07T12:57:30.785Z,65.09
2022-11-07T12:59:59.335Z,62.67
2022-11-07T13:02:42.218Z,64.54
2022-11-07T13:05:47.866Z,63.91
2022-11-07T13:08:35.172Z,64.70
2022-11-07T13:11:12.244Z,62.64
2022-11-07T13:13:50.159Z,66.05
2022-11-07T13:16:28.433Z,65.14
2022-11-07T13:18:56.129Z,63.77
2022-11-07T13:21:23.996Z,63.38
2022-11-07T13:23:51.444Z,62.28
2022-11-07T13:26:46.258Z,61.70
2022-11-07T13:29:36.139Z,62.56
2022-11-07T13:32:13.930Z,61.65
2022-11-07T13:34:58.498Z,62.92
2022-11-07T13:37:33.264Z,61.84
2022-11-07T13:40:21.648Z,62.09
2022-11-07T13:42:49.152Z,60.88
2022-11-07T13:45:42.575Z,62.54
2022-11-07T13:48:21.939Z,59.66
2022-11-07T13:51:07.949Z,61.05
2022-11-07T13:54:02.765Z,59.80
2022-11-07T13:56:46.398Z,59.63
2022-11-07T13:59:20.884Z,60.62
2022-11-07T14:01:54.483Z,59.24
2022-11-07T14:04:22.256Z,59.78
2022-11-07T14:06:50.145Z,60.00
2022-11-07T14:09:31.490Z,58.63
2022-11-07T14:12:02.469Z,58.47
2022-11-07T14:14:50.940Z,58.71
2022-11-07T14:17:19.032Z,59.59
2022-11-07T14:19:46.376Z,57.90
2022-11-07T14:22:29.309Z,59.25
2022-11-07T14:24:57.261Z,59.38
2022-11-07T14:27:24.705Z,59.68
2022-11-07T14:29:56.034Z,59.01
2022-11-07T14:32:26.892Z,59.78
2022-11-07T14:34:56.858Z,59.56
2022-11-07T14:37:25.394Z,60.29
2022-11-07T14:39:52.739Z,61.00
2022-11-07T14:42:21.710Z,61.34
2022-11-07T14:44:55.473Z,61.96
2022-11-07T14:47:26.805Z,62.42
2022-11-07T14:49:54.466Z,62.29
2022-11-07T14:52:31.227Z,62.35
2022-11-07T14:55:13.005Z,62.90
2022-11-07T14:57:40.329Z,62.85
2022-11-07T15:00:08.851Z,63.53
2022-11-07T15:02:36.404Z,63.32
2022-11-07T15:05:10.740Z,63.54
2022-11-07T15:07:46.592Z,63.57
2022-11-07T15:10:19.375Z,64.28
2022-11-07T15:12:51.332Z,64.97
2022-11-07T15:15:25.600Z,64.82
2022-11-07T15:17:55.022Z,65.00
2022-11-07T15:20:31.171Z,65.77
2022-11-07T15:22:59.473Z,66.10
2022-11-07T15:25:35.061Z,66.06
2022-11-07T15:28:18.103Z,65.95
2022-11-07T15:30:46.018Z,66.57
2022-11-07T15:33:13.689Z,66.75
2022-11-07T15:35:45.175Z,66.58
2022-11-07T15:38:20.816Z,66.98
2022-11-07T15:40:48.757Z,66.96
2022-11-07T15:43:16.102Z,67.51
2022-11-07T15:45:43.611Z,67.03
2022-11-07T15:48:18.866Z,67.29
2022-11-07T15:50:47.024Z,67.69
2022-11-07T15:53:20.161Z,67.57
2022-11-07T15:55:47.546Z,67.73
2022-11-07T15:58:15.583Z,67.90
2022-11-07T16:00:43.211Z,67.81
2022-11-07T16:03:14.113Z,68.27
2022-11-07T16:05:42.430Z,68.27
2022-11-07T16:08:14.153Z,68.53
2022-11-07T16:10:53.202Z,68.62
2022-11-07T16:13:20.553Z,68.55
2022-11-07T16:15:53.504Z,68.80
2022-11-07T16:18:21.548Z,68.70
2022-11-07T16:20:49.372Z,68.67
2022-11-07T16:23:18.206Z,69.42
2022-11-07T16:25:47.002Z,69.02
2022-11-07T16:28:25.872Z,68.89
2022-11-07T16:30:53.316Z,69.31
2022-11-07T16:33:20.907Z,69.21
2022-11-07T16:35:48.752Z,69.50
2022-11-07T16:38:17.526Z,69.59
2022-11-07T16:40:45.436Z,70.06
2022-11-07T16:43:12.786Z,69.82
2022-11-07T16:45:47.460Z,69.87
2022-11-07T16:48:25.755Z,69.84
2022-11-07T16:50:53.340Z,69.93
2022-11-07T16:53:21.325Z,69.79
2022-11-07T16:55:53.491Z,69.33
2022-11-07T16:58:24.526Z,70.09
2022-11-07T17:00:52.287Z,69.80
2022-11-07T17:03:19.940Z,69.96
2022-11-07T17:05:47.562Z,69.84
2022-11-07T17:08:20.028Z,71.15
2022-11-07T17:10:47.614Z,70.60
2022-11-07T17:13:14.952Z,70.10
2022-11-07T17:15:42.291Z,70.10
2022-11-07T17:18:22.097Z,70.51
2022-11-07T17:20:51.580Z,70.32
2022-11-07T17:23:23.997Z,71.04
2022-11-07T17:25:54.391Z,70.22
2022-11-07T17:28:22.130Z,70.15
2022-11-07T17:30:49.448Z,70.18
2022-11-07T17:33:16.856Z,70.60
2022-11-07T17:35:44.494Z,71.07
2022-11-07T17:38:16.716Z,70.85
2022-11-07T17:40:44.637Z,70.86
2022-11-07T17:43:11.995Z,70.90
2022-11-07T17:45:39.345Z,70.77
2022-11-07T17:48:06.978Z,71.00
2022-11-07T17:50:34.327Z,70.58
2022-11-07T17:53:01.678Z,70.81
2022-11-07T17:55:29.271Z,71.09
2022-11-07T17:57:56.674Z,71.21
2022-11-07T18:00:24.568Z,71.21
2022-11-07T18:02:52.590Z,71.47
2022-11-07T18:05:20.950Z,70.75
2022-11-07T18:07:48.304Z,71.21
2022-11-07T18:10:16.059Z,71.39
2022-11-07T18:12:43.464Z,71.50
2022-11-07T18:15:14.135Z,71.57
2022-11-07T18:17:42.564Z,71.05
2022-11-07T18:20:10.348Z,71.17
2022-11-07T18:22:37.845Z,72.29
2022-11-07T18:25:06.581Z,71.32
2022-11-07T18:27:34.000Z,71.27
2022-11-07T18:30:02.442Z,71.05
2022-11-07T18:32:35.761Z,71.22
2022-11-07T18:35:06.032Z,71.23
2022-11-07T18:37:34.131Z,71.96
2022-11-07T18:40:01.490Z,72.12
2022-11-07T18:42:29.327Z,71.30
2022-11-07T18:44:57.114Z,71.46
2022-11-07T18:47:24.507Z,72.28
2022-11-07T18:49:56.876Z,72.18
2022-11-07T18:52:25.008Z,71.71
2022-11-07T18:54:52.347Z,71.68
2022-11-07T18:57:19.676Z,71.71
2022-11-07T18:59:47.442Z,71.31
2022-11-07T19:02:15.543Z,72.03
2022-11-07T19:04:44.649Z,71.60
2022-11-07T19:07:12.273Z,71.92
2022-11-07T19:09:39.635Z,71.70
2022-11-07T19:12:07.192Z,71.26
2022-11-07T19:14:34.855Z,71.45
2022-11-07T19:17:02.180Z,71.70
2022-11-07T19:19:29.697Z,71.64
2022-11-07T19:21:57.329Z,69.23
2022-11-07T19:24:24.770Z,70.63
2022-11-07T19:26:52.136Z,71.06
2022-11-07T19:29:19.770Z,71.09
2022-11-07T19:31:47.165Z,71.05
2022-11-07T19:34:16.848Z,71.32
2022-11-07T19:36:44.432Z,71.50
2022-11-07T19:39:11.768Z,71.48
2022-11-07T19:41:39.129Z,71.76
2022-11-07T19:44:07.191Z,71.40
2022-11-07T19:46:34.555Z,72.25
2022-11-07T19:49:02.100Z,71.40
2022-11-07T19:51:29.743Z,71.81
2022-11-07T19:53:58.276Z,71.74
2022-11-07T19:56:27.036Z,71.47
2022-11-07T19:58:54.766Z,71.53
2022-11-07T20:01:24.284Z,71.49
2022-11-07T20:03:52.158Z,71.25
2022-11-07T20:06:24.916Z,71.60
2022-11-07T20:08:52.523Z,71.58
2022-11-07T20:11:21.076Z,71.54
2022-11-07T20:13:48.534Z,71.95
2022-11-07T20:16:16.205Z,71.37
2022-11-07T20:18:43.606Z,71.45
2022-11-07T20:21:15.716Z,72.08
2022-11-07T20:23:43.724Z,71.72
2022-11-07T20:26:18.720Z,71.56
2022-11-07T20:28:46.811Z,71.98
2022-11-07T20:31:15.613Z,71.80
2022-11-07T20:33:42.947Z,72.45
2022-11-07T20:36:12.822Z,72.84
2022-11-07T20:38:40.241Z,71.67
2022-11-07T20:41:07.664Z,71.83
2022-11-07T20:43:35.547Z,71.91
2022-11-07T20:46:07.100Z,72.59
2022-11-07T20:48:35.191Z,72.36
2022-11-07T20:51:15.938Z,71.93
2022-11-07T20:53:49.490Z,71.59
2022-11-07T20:56:21.727Z,71.51
2022-11-07T20:58:49.480Z,71.25
2022-11-07T21:01:21.520Z,71.56
2022-11-07T21:03:49.253Z,72.29
2022-11-07T21:06:16.706Z,70.96
2022-11-07T21:08:45.575Z,71.04
2022-11-07T21:11:13.337Z,71.28
2022-11-07T21:13:41.451Z,71.50
2022-11-07T21:16:09.194Z,71.53
2022-11-07T21:18:37.793Z,71.25
2022-11-07T21:21:09.618Z,71.16
2022-11-07T21:23:37.262Z,71.60
2022-11-07T21:26:08.947Z,71.24
2022-11-07T21:28:40.512Z,71.35
2022-11-07T21:31:09.993Z,71.61
2022-11-07T21:33:37.634Z,70.79
2022-11-07T21:36:11.970Z,71.89
2022-11-07T21:38:39.537Z,72.02
2022-11-07T21:41:10.371Z,71.36
2022-11-07T21:43:37.776Z,71.41
2022-11-07T21:46:09.493Z,71.46
2022-11-07T21:48:36.988Z,72.07
2022-11-07T21:51:08.770Z,71.82
2022-11-07T21:53:37.980Z,71.74
2022-11-07T21:56:06.984Z,71.16
2022-11-07T21:58:34.463Z,71.09
2022-11-07T22:01:03.081Z,71.02
2022-11-07T22:03:58.873Z,72.14
2022-11-07T22:06:19.605Z,71.91
2022-11-07T22:08:48.247Z,70.75
2022-11-07T22:11:15.759Z,71.27
2022-11-07T22:13:43.194Z,70.61
2022-11-07T22:16:12.476Z,71.29
2022-11-07T22:18:39.844Z,71.77
2022-11-07T22:21:07.338Z,72.08
2022-11-07T22:23:35.340Z,71.48
2022-11-07T22:26:05.831Z,70.96
2022-11-07T22:28:33.278Z,72.23
2022-11-07T22:31:04.725Z,71.41
2022-11-07T22:33:32.187Z,71.27
2022-11-07T22:36:00.900Z,71.89
2022-11-07T22:38:28.563Z,72.08
2022-11-07T22:40:55.898Z,71.41
2022-11-07T22:43:23.237Z,71.97
2022-11-07T22:45:50.809Z,71.52
2022-11-07T22:48:18.412Z,71.28
2022-11-07T22:50:45.805Z,71.42
2022-11-07T22:53:13.384Z,71.58
2022-11-07T22:55:40.709Z,71.58
2022-11-07T22:58:08.020Z,71.48
2022-11-07T23:00:35.603Z,71.36
2022-11-07T23:03:02.981Z,71.86
2022-11-07T23:05:30.420Z,71.28
2022-11-07T23:07:58.033Z,71.21
2022-11-07T23:10:25.366Z,71.46
2022-11-07T23:12:52.709Z,71.32
2022-11-07T23:15:20.328Z,71.92
2022-11-07T23:17:47.649Z,72.50
2022-11-07T23:20:34.940Z,71.64
2022-11-07T23:23:03.333Z,70.96
2022-11-07T23:25:30.717Z,71.47
2022-11-07T23:27:58.063Z,71.50
2022-11-07T23:30:25.651Z,71.39
2022-11-07T23:32:52.992Z,71.57
2022-11-07T23:35:20.321Z,71.31
2022-11-07T23:37:49.344Z,71.20
2022-11-07T23:40:16.694Z,72.16
2022-11-07T23:42:44.029Z,71.85
2022-11-07T23:45:30.652Z,71.37
2022-11-07T23:48:31.609Z,71.46
2022-11-07T23:51:03.344Z,70.91
2022-11-07T23:53:50.456Z,71.42
2022-11-07T23:56:18.579Z,71.17
2022-11-07T23:59:04.766Z,71.49
